createdAt,value
2022-09-11T00:00:00.771Z,5.90
2022-09-11T00:00:59.559Z,6.00
2022-09-11T00:02:03.759Z,5.80
2022-09-11T00:03:01.623Z,6.20
2022-09-11T00:03:58.384Z,5.80
2022-09-11T00:04:57.529Z,5.90
2022-09-11T00:05:58.572Z,5.40
2022-09-11T00:06:57.494Z,5.90
2022-09-11T00:07:58.324Z,6.10
2022-09-11T00:08:59.223Z,5.60
2022-09-11T00:10:03.462Z,5.70
2022-09-11T00:10:57.631Z,6.30
2022-09-11T00:11:57.898Z,6.80
2022-09-11T00:12:57.740Z,6.20
2022-09-11T00:14:03.839Z,6.20
2022-09-11T00:14:59.210Z,6.50
2022-09-11T00:15:57.476Z,6.40
2022-09-11T00:17:02.295Z,6.30
2022-09-11T00:17:58.474Z,6.70
2022-09-11T00:18:57.419Z,7.50
2022-09-11T00:19:57.189Z,7.00
2022-09-11T00:20:58.069Z,7.20
2022-09-11T00:21:56.643Z,7.10
2022-09-11T00:22:56.841Z,7.60
2022-09-11T00:23:57.129Z,7.60
2022-09-11T00:24:57.915Z,7.40
2022-09-11T00:25:57.147Z,7.40
2022-09-11T00:26:56.815Z,7.70
2022-09-11T00:27:56.830Z,7.70
2022-09-11T00:28:57.148Z,7.50
2022-09-11T00:29:56.658Z,8.30
2022-09-11T00:30:57.058Z,7.70
2022-09-11T00:31:56.854Z,7.40
2022-09-11T00:32:57.653Z,7.60
2022-09-11T00:33:57.493Z,7.30
2022-09-11T00:34:56.861Z,7.80
2022-09-11T00:35:57.783Z,7.80
2022-09-11T00:36:57.983Z,7.60
2022-09-11T00:37:56.694Z,8.10
2022-09-11T00:38:56.812Z,7.00
2022-09-11T00:39:58.324Z,7.70
2022-09-11T00:40:58.038Z,7.50
2022-09-11T00:41:57.114Z,7.90
2022-09-11T00:42:56.489Z,8.30
2022-09-11T00:43:56.660Z,7.80
2022-09-11T00:44:56.593Z,7.90
2022-09-11T00:45:56.721Z,8.30
2022-09-11T00:46:57.488Z,8.30
2022-09-11T00:47:56.714Z,8.00
2022-09-11T00:48:56.444Z,7.50
2022-09-11T00:49:56.398Z,8.10
2022-09-11T00:50:56.880Z,7.80
2022-09-11T00:51:56.399Z,7.90
2022-09-11T00:52:56.648Z,7.40
2022-09-11T00:53:56.532Z,7.70
2022-09-11T00:54:56.447Z,7.50
2022-09-11T00:55:56.456Z,8.00
2022-09-11T00:56:56.549Z,8.50
2022-09-11T00:57:56.385Z,7.80
2022-09-11T00:58:56.670Z,8.10
2022-09-11T00:59:56.797Z,7.50
2022-09-11T01:00:56.932Z,7.90
2022-09-11T01:01:56.692Z,8.80
2022-09-11T01:02:56.706Z,8.40
2022-09-11T01:03:56.477Z,8.20
2022-09-11T01:04:56.981Z,7.80
2022-09-11T01:05:56.278Z,8.40
2022-09-11T01:06:56.354Z,8.20
2022-09-11T01:07:56.584Z,8.20
2022-09-11T01:08:57.880Z,8.80
2022-09-11T01:09:56.550Z,8.20
2022-09-11T01:10:56.269Z,8.20
2022-09-11T01:11:56.311Z,9.20
2022-09-11T01:12:56.235Z,8.60
2022-09-11T01:13:56.162Z,8.30
2022-09-11T01:14:56.231Z,8.00
2022-09-11T01:15:56.111Z,8.20
2022-09-11T01:16:56.236Z,8.90
2022-09-11T01:17:56.190Z,8.50
2022-09-11T01:18:56.176Z,8.40
2022-09-11T01:19:56.248Z,8.30
2022-09-11T01:20:56.288Z,8.30
2022-09-11T01:21:56.344Z,8.60
2022-09-11T01:23:08.725Z,8.40
2022-09-11T01:24:08.354Z,8.50
2022-09-11T01:25:08.001Z,8.40
2022-09-11T01:25:57.968Z,8.60
2022-09-11T01:26:57.153Z,8.50
2022-09-11T01:27:57.193Z,9.20
2022-09-11T01:28:56.853Z,8.60
2022-09-11T01:29:56.475Z,8.90
2022-09-11T01:30:56.828Z,8.50
2022-09-11T01:31:56.311Z,8.90
2022-09-11T01:32:56.277Z,8.70
2022-09-11T01:33:56.631Z,9.60
2022-09-11T01:34:56.020Z,8.80
2022-09-11T01:35:56.237Z,8.40
2022-09-11T01:36:56.177Z,9.20
2022-09-11T01:37:56.034Z,9.00
2022-09-11T01:38:56.133Z,9.00
2022-09-11T01:39:56.108Z,8.90
2022-09-11T01:40:55.985Z,9.00
2022-09-11T01:41:56.035Z,8.30
2022-09-11T01:42:56.120Z,9.30
2022-09-11T01:43:56.206Z,8.90
2022-09-11T01:44:55.977Z,9.60
2022-09-11T01:45:55.988Z,8.90
2022-09-11T01:46:56.394Z,9.10
2022-09-11T01:47:56.100Z,8.70
2022-09-11T01:48:55.810Z,9.40
2022-09-11T01:49:56.546Z,9.50
2022-09-11T01:50:57.059Z,9.50
2022-09-11T01:51:59.351Z,9.80
2022-09-11T01:52:57.262Z,9.70
2022-09-11T01:53:56.558Z,10.20
2022-09-11T01:54:57.617Z,10.50
2022-09-11T01:55:56.190Z,9.90
2022-09-11T01:56:59.331Z,10.40
2022-09-11T01:58:04.733Z,9.90
2022-09-11T01:58:57.249Z,10.10
2022-09-11T01:59:56.007Z,10.50
2022-09-11T02:00:56.396Z,10.70
2022-09-11T02:01:56.454Z,11.70
2022-09-11T02:02:56.102Z,11.30
2022-09-11T02:03:56.184Z,10.50
2022-09-11T02:04:56.660Z,11.00
2022-09-11T02:05:56.073Z,11.70
2022-09-11T02:06:56.697Z,12.10
2022-09-11T02:07:56.177Z,11.10
2022-09-11T02:08:56.935Z,12.10
2022-09-11T02:09:55.824Z,11.20
2022-09-11T02:10:56.281Z,12.00
2022-09-11T02:11:56.099Z,11.60
2022-09-11T02:12:56.173Z,11.50
2022-09-11T02:13:56.050Z,11.40
2022-09-11T02:14:57.902Z,12.00
2022-09-11T02:15:57.315Z,11.30
2022-09-11T02:16:55.993Z,10.90
2022-09-11T02:17:57.041Z,12.10
2022-09-11T02:18:57.403Z,12.00
2022-09-11T02:19:57.068Z,11.10
2022-09-11T02:20:56.360Z,11.60
2022-09-11T02:21:56.347Z,12.00
2022-09-11T02:22:56.273Z,11.10
2022-09-11T02:23:57.258Z,11.80
2022-09-11T02:24:56.084Z,11.20
2022-09-11T02:25:56.986Z,11.50
2022-09-11T02:26:56.200Z,11.90
2022-09-11T02:27:56.047Z,11.80
2022-09-11T02:28:56.173Z,11.50
2022-09-11T02:29:56.973Z,11.20
2022-09-11T02:30:56.603Z,11.90
2022-09-11T02:32:00.315Z,11.60
2022-09-11T02:44:52.179Z,8.10
2022-09-11T02:45:52.421Z,9.70
2022-09-11T02:46:52.725Z,10.80
2022-09-11T02:47:52.854Z,11.90
2022-09-11T02:48:52.467Z,12.20
2022-09-11T02:49:52.503Z,13.40
2022-09-11T02:50:52.353Z,12.80
2022-09-11T02:51:52.248Z,11.70
2022-09-11T02:52:52.270Z,12.10
2022-09-11T02:53:52.417Z,12.00
2022-09-11T02:54:52.200Z,12.70
2022-09-11T02:55:52.645Z,12.50
2022-09-11T02:56:52.453Z,13.50
2022-09-11T02:57:52.250Z,13.10
2022-09-11T02:58:52.648Z,12.80
2022-09-11T02:59:52.355Z,13.30
2022-09-11T03:00:52.422Z,12.20
2022-09-11T03:01:52.465Z,13.20
2022-09-11T03:02:52.640Z,13.30
2022-09-11T03:03:52.179Z,13.60
2022-09-11T03:04:52.060Z,13.40
2022-09-11T03:05:52.188Z,13.20
2022-09-11T03:06:52.065Z,12.90
2022-09-11T03:07:52.231Z,13.40
2022-09-11T03:08:54.151Z,13.80
2022-09-11T03:09:54.238Z,13.20
2022-09-11T03:10:53.575Z,13.60
2022-09-11T03:11:54.328Z,13.20
2022-09-11T03:13:01.214Z,14.00
2022-09-11T03:13:55.070Z,13.60
2022-09-11T03:14:54.813Z,13.80
2022-09-11T03:16:02.235Z,13.10
2022-09-11T03:16:55.882Z,13.30
2022-09-11T03:17:56.801Z,13.60
2022-09-11T03:18:55.621Z,13.20
2022-09-11T03:19:56.309Z,13.00
2022-09-11T03:20:55.719Z,12.60
2022-09-11T03:21:54.745Z,13.80
2022-09-11T03:22:57.010Z,13.30
2022-09-11T03:23:55.803Z,13.90
2022-09-11T03:24:56.728Z,13.60
2022-09-11T03:25:54.988Z,14.50
2022-09-11T03:26:54.954Z,14.10
2022-09-11T03:27:59.129Z,14.70
2022-09-11T03:29:01.293Z,15.10
2022-09-11T03:29:57.307Z,15.00
2022-09-11T03:30:56.127Z,14.60
2022-09-11T03:31:55.040Z,15.10
2022-09-11T03:32:54.430Z,15.00
2022-09-11T03:33:59.625Z,15.40
2022-09-11T03:34:54.573Z,14.80
2022-09-11T03:36:06.653Z,15.00
2022-09-11T03:36:57.091Z,15.40
2022-09-11T03:37:56.351Z,16.00
2022-09-11T03:38:57.819Z,15.40
2022-09-11T03:39:56.546Z,15.60
2022-09-11T03:41:01.327Z,16.60
2022-09-11T03:41:56.711Z,15.20
2022-09-11T03:42:59.414Z,14.20
2022-09-11T03:44:06.294Z,15.70
2022-09-11T03:45:08.695Z,16.30
2022-09-11T03:46:02.772Z,14.20
2022-09-11T03:47:00.887Z,15.10
2022-09-11T03:48:01.952Z,14.90
2022-09-11T03:49:01.275Z,14.70
2022-09-11T03:50:00.989Z,15.20
2022-09-11T03:51:04.537Z,14.80
2022-09-11T03:52:05.578Z,15.40
2022-09-11T03:53:04.172Z,15.80
2022-09-11T03:54:07.525Z,15.00
2022-09-11T03:55:07.217Z,15.50
2022-09-11T03:56:05.132Z,15.70
2022-09-11T03:57:07.775Z,14.20
2022-09-11T03:57:59.020Z,15.00
2022-09-11T03:59:03.801Z,15.50
2022-09-11T03:59:58.822Z,15.20
2022-09-11T04:01:08.160Z,15.70
2022-09-11T04:02:09.776Z,16.20
2022-09-11T04:03:05.107Z,15.60
2022-09-11T04:04:01.857Z,15.80
2022-09-11T04:05:04.574Z,16.80
2022-09-11T04:06:04.357Z,16.90
2022-09-11T04:07:03.250Z,15.50
2022-09-11T04:07:57.464Z,16.10
2022-09-11T04:08:59.283Z,15.20
2022-09-11T04:09:58.526Z,15.50
2022-09-11T04:11:00.569Z,17.20
2022-09-11T04:12:01.977Z,16.30
2022-09-11T04:12:57.125Z,16.50
2022-09-11T04:13:53.683Z,16.50
2022-09-11T04:14:54.079Z,16.20
2022-09-11T04:15:56.156Z,16.70
2022-09-11T04:16:56.186Z,16.00
2022-09-11T04:17:54.378Z,16.00
2022-09-11T04:18:55.221Z,16.00
2022-09-11T04:19:55.064Z,17.50
2022-09-11T04:20:57.539Z,17.40
2022-09-11T04:21:53.251Z,16.70
2022-09-11T04:22:54.781Z,17.90
2022-09-11T04:23:56.850Z,17.50
2022-09-11T04:25:02.192Z,17.60
2022-09-11T04:26:10.291Z,17.80
2022-09-11T04:26:57.335Z,19.00
2022-09-11T04:27:58.274Z,18.10
2022-09-11T04:28:55.013Z,18.00
2022-09-11T04:29:55.727Z,18.50
2022-09-11T04:31:00.512Z,18.40
2022-09-11T04:32:00.125Z,16.00
2022-09-11T04:33:06.258Z,18.20
2022-09-11T04:33:57.748Z,17.70
2022-09-11T04:35:04.229Z,17.40
2022-09-11T04:36:05.449Z,17.40
2022-09-11T04:37:15.954Z,18.10
2022-09-11T04:38:01.206Z,18.20
2022-09-11T04:39:00.480Z,17.70
2022-09-11T04:40:03.530Z,18.00
2022-09-11T04:41:10.710Z,18.40
2022-09-11T04:42:01.330Z,18.50
2022-09-11T04:43:01.273Z,17.40
2022-09-11T04:44:04.767Z,18.40
2022-09-11T04:45:02.064Z,17.80
2022-09-11T04:46:02.288Z,17.70
2022-09-11T04:47:05.767Z,17.90
2022-09-11T04:48:00.444Z,18.80
2022-09-11T04:49:00.328Z,19.20
2022-09-11T04:50:04.632Z,18.10
2022-09-11T04:51:00.817Z,17.50
2022-09-11T04:52:08.644Z,19.00
2022-09-11T04:52:58.128Z,18.30
2022-09-11T04:54:00.140Z,18.90
2022-09-11T04:54:54.062Z,18.40
2022-09-11T04:55:59.700Z,19.20
2022-09-11T04:56:57.417Z,18.90
2022-09-11T04:57:55.478Z,18.90
2022-09-11T04:58:55.822Z,18.00
2022-09-11T05:00:01.822Z,17.50
2022-09-11T05:01:00.637Z,18.20
2022-09-11T05:01:56.216Z,18.10
2022-09-11T05:02:59.519Z,18.70
2022-09-11T05:03:55.469Z,17.80
2022-09-11T05:04:57.591Z,18.50
2022-09-11T05:06:01.252Z,18.60
2022-09-11T05:07:00.029Z,18.30
2022-09-11T05:07:58.648Z,18.00
2022-09-11T05:08:56.988Z,18.30
2022-09-11T05:09:57.005Z,17.90
2022-09-11T05:10:58.894Z,17.80
2022-09-11T05:11:56.980Z,18.20
2022-09-11T05:12:58.507Z,18.10
2022-09-11T05:13:55.447Z,18.30
2022-09-11T05:14:54.453Z,18.30
2022-09-11T05:15:54.920Z,18.30
2022-09-11T05:16:58.110Z,17.20
2022-09-11T05:17:55.291Z,17.90
2022-09-11T05:18:55.214Z,17.50
2022-09-11T05:19:53.608Z,17.00
2022-09-11T05:20:54.543Z,17.50
2022-09-11T05:21:52.973Z,17.30
2022-09-11T05:22:53.136Z,17.30
2022-09-11T05:23:52.586Z,17.30
2022-09-11T05:24:58.273Z,17.00
2022-09-11T05:25:57.671Z,17.30
2022-09-11T05:26:55.047Z,18.30
2022-09-11T05:27:53.470Z,17.30
2022-09-11T05:28:52.752Z,18.00
2022-09-11T05:29:54.772Z,17.90
2022-09-11T05:31:02.065Z,17.40
2022-09-11T05:32:03.219Z,17.70
2022-09-11T05:32:56.099Z,16.90
2022-09-11T05:34:00.233Z,18.40
2022-09-11T05:34:54.821Z,18.10
2022-09-11T05:35:55.221Z,18.20
2022-09-11T05:36:59.581Z,18.90
2022-09-11T05:37:53.539Z,19.00
2022-09-11T05:38:53.553Z,18.70
2022-09-11T05:39:53.130Z,18.20
2022-09-11T05:40:53.518Z,19.00
2022-09-11T05:41:53.569Z,18.00
2022-09-11T05:42:52.474Z,18.20
2022-09-11T05:43:51.797Z,18.90
2022-09-11T05:44:52.066Z,18.60
2022-09-11T05:45:52.634Z,18.90
2022-09-11T05:47:02.620Z,18.90
2022-09-11T05:49:54.654Z,18.80
2022-09-11T05:51:03.109Z,18.80
2022-09-11T05:51:54.927Z,19.80
2022-09-11T05:52:58.096Z,18.70
2022-09-11T05:53:55.901Z,18.60
2022-09-11T05:55:05.784Z,18.00
2022-09-11T05:57:29.319Z,18.80
2022-09-11T06:00:01.302Z,18.20
2022-09-11T06:01:09.149Z,19.60
2022-09-11T06:02:09.202Z,18.30
2022-09-11T06:04:34.181Z,17.70
2022-09-11T06:05:42.512Z,18.30
2022-09-11T06:06:34.215Z,18.60
2022-09-11T06:07:34.094Z,18.80
2022-09-11T06:08:34.513Z,18.70
2022-09-11T06:09:45.990Z,18.40
2022-09-11T06:10:42.778Z,17.80
2022-09-11T06:11:44.604Z,18.70
2022-09-11T06:14:10.209Z,17.70
2022-09-11T06:15:42.823Z,18.30
2022-09-11T06:16:45.321Z,18.20
2022-09-11T06:17:16.545Z,18.50
2022-09-11T06:18:45.430Z,17.90
2022-09-11T06:19:12.205Z,17.70
2022-09-11T06:22:10.098Z,17.80
2022-09-11T06:23:11.281Z,17.40
2022-09-11T06:24:24.147Z,18.00
2022-09-11T06:26:36.967Z,17.30
2022-09-11T06:27:46.333Z,18.30
2022-09-11T06:30:03.892Z,16.10
2022-09-11T06:31:11.824Z,16.70
2022-09-11T06:32:11.621Z,16.60
2022-09-11T06:33:13.771Z,16.80
2022-09-11T06:34:12.931Z,16.10
2022-09-11T06:35:11.858Z,16.70
2022-09-11T06:36:12.080Z,16.70
2022-09-11T06:37:03.987Z,17.00
2022-09-11T06:38:04.746Z,16.20
